Time;durP1;ratioP1;P1;durP2;ratioP2;P2;SDS_P1;SDS_P2;PMS_P1;PMS_P2;Temp;Humidity;BMP_temperature;BMP_pressure;BME280_temperature;BME280_humidity;BME280_pressure;Samples;Min_cycle;Max_cycle;Signal;HPM_P1;HPM_P2
2022/11/10 00:01:07;;;;;;;10.70;9.70;;;11.90;87.10;;;10.41;100.00;96314.47;4932540;28;20686;-72
2022/11/10 00:03:34;;;;;;;10.23;9.20;;;11.90;87.20;;;10.40;100.00;96320.69;4974862;27;20349;-71
2022/11/10 00:06:05;;;;;;;10.88;9.73;;;11.90;87.20;;;10.41;100.00;96321.53;4931785;28;20368;-71
2022/11/10 00:08:31;;;;;;;10.63;9.63;;;11.90;87.10;;;10.40;100.00;96333.03;4948684;28;20601;-71
2022/11/10 00:10:57;;;;;;;10.57;9.55;;;11.80;87.10;;;10.39;100.00;96328.75;4948155;28;20571;-71
2022/11/10 00:13:25;;;;;;;10.90;9.80;;;11.80;87.30;;;10.39;100.00;96329.56;4948422;28;20800;-71
2022/11/10 00:18:37;;;;;;;10.82;9.82;;;11.90;87.40;;;10.38;100.00;96335.03;4961584;28;20749;-71
2022/11/10 00:21:05;;;;;;;12.27;10.98;;;11.80;87.40;;;10.37;100.00;96341.28;4946668;28;20344;-71
2022/11/10 00:23:31;;;;;;;11.00;9.93;;;11.80;87.80;;;10.36;100.00;96337.84;4960366;28;20320;-71
2022/11/10 00:25:57;;;;;;;11.98;10.48;;;11.80;87.80;;;10.36;100.00;96343.09;4954330;28;20382;-71
2022/11/10 00:28:24;;;;;;;11.98;10.77;;;11.80;87.70;;;10.34;100.00;96350.34;4962329;28;20473;-72
2022/11/10 00:30:50;;;;;;;11.68;10.50;;;11.80;87.70;;;10.34;100.00;96345.09;4938515;28;20324;-72
2022/11/10 00:33:16;;;;;;;12.57;11.38;;;11.80;87.80;;;10.34;100.00;96352.16;4954672;28;20490;-72
2022/11/10 00:35:42;;;;;;;13.00;11.60;;;11.80;87.90;;;10.35;100.00;96349.34;4947530;28;20347;-71
2022/11/10 00:38:08;;;;;;;12.70;11.45;;;11.80;87.80;;;10.36;100.00;96348.34;4974564;28;20301;-71
2022/11/10 00:40:34;;;;;;;13.50;12.20;;;11.90;87.80;;;10.36;100.00;96358.06;4937703;28;20380;-71
2022/11/10 00:43:00;;;;;;;12.85;11.55;;;11.90;87.70;;;10.36;100.00;96358.88;4963343;28;20777;-71
2022/11/10 00:45:26;;;;;;;12.90;11.60;;;11.90;87.70;;;10.36;100.00;96364.13;4931098;28;20497;-72
2022/11/10 00:47:53;;;;;;;11.98;10.77;;;11.90;87.80;;;10.36;100.00;96368.56;4953250;28;20494;-71
2022/11/10 00:50:19;;;;;;;13.80;12.40;;;11.80;87.80;;;10.35;100.00;96367.75;4952080;28;20187;-71
2022/11/10 00:52:45;;;;;;;12.13;10.93;;;11.80;87.90;;;10.35;100.00;96373.00;4941863;28;20354;-71
2022/11/10 00:55:11;;;;;;;12.25;10.43;;;11.80;87.80;;;10.33;100.00;96374.19;4963240;28;20496;-71
2022/11/10 00:57:37;;;;;;;12.20;10.95;;;11.70;88.00;;;10.31;100.00;96379.63;4962831;28;20578;-71
2022/11/10 01:00:04;;;;;;;11.95;10.75;;;11.60;88.20;;;10.29;100.00;96379.00;4962950;28;20561;-72
2022/11/10 01:02:30;;;;;;;12.02;10.55;;;11.70;88.40;;;10.28;100.00;96372.13;4962310;28;20513;-71
2022/11/10 01:04:56;;;;;;;11.75;9.18;;;11.70;88.30;;;10.28;100.00;96376.56;4966360;28;20324;-72
2022/11/10 01:07:23;;;;;;;10.90;9.73;;;11.70;88.20;;;10.28;100.00;96371.28;4963624;28;20410;-71
2022/11/10 01:09:49;;;;;;;10.77;8.73;;;11.70;88.00;;;10.27;100.00;96375.75;4956874;28;20470;-71
2022/11/10 01:12:15;;;;;;;13.07;11.18;;;11.70;87.90;;;10.25;100.00;96377.72;4939725;28;20418;-71
2022/11/10 01:14:41;;;;;;;10.75;9.65;;;11.60;88.30;;;10.25;100.00;96384.81;4950870;28;20553;-71
2022/11/10 01:17:07;;;;;;;10.55;9.55;;;11.70;88.10;;;10.26;100.00;96384.63;4926777;28;20214;-71
2022/11/10 01:19:34;;;;;;;10.73;9.70;;;11.80;88.20;;;10.27;100.00;96381.00;4932960;28;20526;-71
2022/11/10 01:22:00;;;;;;;10.65;9.63;;;11.80;88.00;;;10.27;100.00;96383.63;4934031;28;20649;-71
2022/11/10 01:24:26;;;;;;;11.32;10.13;;;11.80;87.90;;;10.28;100.00;96382.63;4933661;28;20538;-71
2022/11/10 01:26:53;;;;;;;13.30;10.65;;;11.80;87.90;;;10.30;100.00;96388.53;4925199;28;20349;-71
2022/11/10 01:29:19;;;;;;;11.10;10.00;;;11.80;87.80;;;10.30;100.00;96385.91;4961292;28;20652;-71
2022/11/10 01:31:45;;;;;;;13.38;10.25;;;11.80;87.80;;;10.31;100.00;96391.97;4970015;28;20359;-71
2022/11/10 01:34:11;;;;;;;13.30;11.40;;;11.90;87.70;;;10.32;100.00;96391.78;4965465;28;20311;-71
2022/11/10 01:36:37;;;;;;;14.18;12.73;;;11.90;87.50;;;10.32;100.00;96393.59;4936821;28;20619;-71
2022/11/10 01:39:08;;;;;;;;;;;11.90;87.80;;;10.30;100.00;96393.78;4940476;28;20485;-71
2022/11/10 01:41:34;;;;;;;14.93;13.18;;;11.90;87.90;;;10.29;100.00;96394.78;4990972;28;20246;-71
2022/11/10 01:44:21;;;;;;;14.48;12.98;;;11.80;88.10;;;10.29;100.00;96394.78;4971741;22;20326;-66
2022/11/10 01:46:47;;;;;;;15.38;13.88;;;11.90;88.00;;;10.30;100.00;96404.28;4909900;28;20317;-67
2022/11/10 01:49:15;;;;;;;13.10;11.80;;;11.90;88.00;;;10.32;100.00;96404.94;4921134;28;20383;-66
2022/11/10 01:52:01;;;;;;;14.80;13.20;;;11.90;87.90;;;10.33;100.00;96403.94;4908498;28;20311;-66
2022/11/10 01:54:37;;;;;;;14.98;13.38;;;11.90;87.90;;;10.35;100.00;96409.81;4902054;28;20964;-67
2022/11/10 01:57:06;;;;;;;15.35;13.75;;;12.00;87.80;;;10.36;100.00;96410.66;4915271;28;20285;-68
2022/11/10 01:59:38;;;;;;;15.38;13.48;;;12.00;87.80;;;10.38;100.00;96419.97;4909880;28;20347;-68
2022/11/10 02:02:37;;;;;;;15.40;13.27;;;12.00;87.80;;;10.39;100.00;96411.09;4908749;28;20528;-67
2022/11/10 02:05:04;;;;;;;15.38;13.88;;;12.10;87.80;;;10.39;100.00;96416.34;4897330;28;20269;-66
2022/11/10 02:07:30;;;;;;;15.98;14.13;;;12.00;87.70;;;10.41;100.00;96416.19;4927926;28;20037;-66
2022/11/10 02:09:56;;;;;;;16.52;14.63;;;12.00;87.80;;;10.40;100.00;96417.97;4927754;28;20363;-67
2022/11/10 02:12:35;;;;;;;16.38;14.50;;;12.00;87.90;;;10.41;100.00;96430.16;4933097;28;20477;-68
2022/11/10 02:15:08;;;;;;;17.40;14.77;;;12.00;88.00;;;10.41;100.00;96443.31;4930408;28;20407;-67
2022/11/10 02:17:34;;;;;;;14.02;11.90;;;12.00;88.00;;;10.39;100.00;96437.41;4927542;28;20187;-67
2022/11/10 02:20:08;;;;;;;9.32;5.90;;;11.90;87.80;;;10.36;100.00;96437.75;4928100;28;20397;-68
2022/11/10 02:22:35;;;;;;;3.45;1.83;;;11.90;86.40;;;10.31;100.00;96445.38;4927933;28;20471;-67
2022/11/10 02:25:01;;;;;;;4.50;1.63;;;11.80;85.50;;;10.27;100.00;96443.28;4948183;28;20328;-68
2022/11/10 02:27:27;;;;;;;1.48;0.88;;;11.80;85.10;;;10.23;100.00;96442.81;4928399;28;20429;-67
2022/11/10 02:29:53;;;;;;;3.10;0.90;;;11.70;85.00;;;10.21;100.00;96450.06;4922826;28;20391;-68
2022/11/10 02:32:19;;;;;;;3.90;1.30;;;11.60;84.80;;;10.15;100.00;96453.34;4908323;28;20445;-66
2022/11/10 02:34:45;;;;;;;4.90;0.93;;;11.60;85.20;;;10.12;100.00;96451.09;4904323;28;20559;-67
2022/11/10 02:37:11;;;;;;;4.40;1.02;;;11.60;85.20;;;10.09;100.00;96448.81;4907718;28;20504;-67
2022/11/10 02:39:37;;;;;;;5.47;0.85;;;11.60;85.20;;;10.07;100.00;96458.69;4941824;28;20484;-67
2022/11/10 02:42:09;;;;;;;5.38;1.30;;;11.60;85.30;;;10.02;100.00;96450.53;4909629;28;20378;-67
2022/11/10 02:44:38;;;;;;;4.85;1.17;;;11.50;85.30;;;10.02;100.00;96455.78;4905074;28;20378;-66
2022/11/10 02:47:05;;;;;;;2.35;0.75;;;11.60;85.20;;;10.00;100.00;96452.53;4918056;28;20206;-65
2022/11/10 02:49:31;;;;;;;3.40;1.00;;;11.60;85.30;;;10.00;100.00;96457.78;4941882;28;20421;-66
2022/11/10 02:51:57;;;;;;;5.60;0.98;;;11.60;85.30;;;9.97;100.00;96452.88;4914227;28;20932;-66
2022/11/10 02:54:23;;;;;;;3.70;1.00;;;11.50;85.10;;;9.96;100.00;96461.75;4906525;28;20384;-67
2022/11/10 02:56:50;;;;;;;29.73;22.33;;;11.50;85.30;;;9.96;100.00;96461.75;4928637;28;20494;-67
2022/11/10 02:59:16;;;;;;;16.02;11.38;;;11.60;85.60;;;9.96;100.00;96469.63;4898580;28;20457;-66
2022/11/10 03:01:42;;;;;;;10.55;6.32;;;11.60;85.60;;;9.94;100.00;96479.47;4914337;28;20136;-68
2022/11/10 03:04:08;;;;;;;6.88;2.67;;;11.60;85.70;;;9.94;100.00;96475.03;4941454;28;20758;-67
2022/11/10 03:06:34;;;;;;;3.78;1.80;;;11.60;85.60;;;9.95;100.00;96483.75;4912819;28;20759;-66
2022/11/10 03:09:00;;;;;;;27.55;18.33;;;11.60;85.40;;;9.94;100.00;96487.38;4909913;28;20588;-67
2022/11/10 03:11:26;;;;;;;25.20;19.95;;;11.60;85.60;;;9.96;100.00;96493.28;4912525;28;20565;-66
2022/11/10 03:13:53;;;;;;;13.70;8.38;;;11.60;85.80;;;9.96;100.00;96496.72;4928078;28;20355;-66
2022/11/10 03:16:19;;;;;;;6.07;2.80;;;11.60;85.70;;;9.96;100.00;96495.91;4934270;28;20409;-67
2022/11/10 03:18:45;;;;;;;5.05;1.75;;;11.60;85.70;;;9.95;100.00;96502.13;4919885;28;20279;-67
2022/11/10 03:21:11;;;;;;;3.67;1.40;;;11.60;85.80;;;9.93;100.00;96499.69;4926792;28;20292;-66
2022/11/10 03:23:37;;;;;;;2.58;1.50;;;11.60;85.80;;;9.94;100.00;96516.28;4925675;28;20306;-67
2022/11/10 03:26:04;;;;;;;3.40;1.30;;;11.60;85.90;;;9.93;100.00;96517.25;4896899;28;20368;-66
2022/11/10 03:28:30;;;;;;;2.67;1.40;;;11.60;86.00;;;9.92;100.00;96523.50;4961003;28;20316;-68
2022/11/10 03:30:56;;;;;;;3.42;1.38;;;11.50;86.10;;;9.92;100.00;96534.84;4894733;28;20366;-67
2022/11/10 03:33:22;;;;;;;2.22;1.40;;;11.50;86.20;;;9.91;100.00;96532.38;4927044;28;20898;-66
2022/11/10 03:35:48;;;;;;;2.55;1.40;;;11.50;86.20;;;9.91;100.00;96535.84;4942295;28;20522;-66
2022/11/10 03:38:14;;;;;;;5.32;1.40;;;11.50;86.20;;;9.92;100.00;96539.28;4894635;28;20509;-67
2022/11/10 03:40:41;;;;;;;2.72;1.38;;;11.60;86.10;;;9.93;100.00;96540.91;4902506;28;20262;-66
2022/11/10 03:43:07;;;;;;;4.82;1.60;;;11.50;86.10;;;9.92;100.00;96539.28;4938806;28;20697;-67
2022/11/10 03:45:33;;;;;;;8.80;4.85;;;11.60;86.00;;;9.93;100.00;96543.53;4903484;28;20635;-66
2022/11/10 03:47:59;;;;;;;23.17;16.50;;;11.60;85.80;;;9.91;100.00;96543.72;4945509;27;20838;-67
2022/11/10 03:50:26;;;;;;;9.88;5.90;;;11.50;86.00;;;9.92;100.00;96555.84;4930669;28;20298;-67
2022/11/10 03:52:52;;;;;;;4.28;2.00;;;11.60;86.00;;;9.92;100.00;96560.31;4942512;28;20401;-67
2022/11/10 03:55:18;;;;;;;1.92;1.40;;;11.60;86.00;;;9.92;100.00;96560.31;4917649;28;20739;-67
2022/11/10 03:57:44;;;;;;;3.10;1.60;;;11.50;86.00;;;9.91;100.00;96554.22;4939357;28;20318;-66
2022/11/10 04:00:12;;;;;;;3.42;1.30;;;11.60;86.00;;;9.91;100.00;96563.91;4924247;28;20270;-66
2022/11/10 04:02:38;;;;;;;3.70;1.38;;;11.60;86.00;;;9.90;100.00;96563.09;4927960;28;20322;-67
2022/11/10 04:10:43;;;;;;;37.33;28.80;;;11.50;86.10;;;9.89;100.00;96571.16;4922811;28;20460;-66
2022/11/10 04:15:54;;;;;;;7.25;5.15;;;11.50;86.00;;;9.87;100.00;96566.09;4930320;28;20333;-67
2022/11/10 04:18:28;;;;;;;4.97;3.72;;;11.50;86.00;;;9.87;100.00;96573.16;4910452;28;20873;-66
2022/11/10 04:20:56;;;;;;;3.35;1.90;;;11.60;86.00;;;9.85;100.00;96569.88;4911623;28;20447;-66
2022/11/10 04:23:26;;;;;;;5.20;1.60;;;11.50;86.00;;;9.83;100.00;96589.25;4910169;28;20551;-67
2022/11/10 04:28:43;;;;;;;20.27;16.05;;;11.50;86.00;;;9.83;100.00;96581.38;4920981;28;20803;-67
2022/11/10 04:31:09;;;;;;;19.75;16.80;;;11.50;86.20;;;9.83;100.00;96588.44;4906095;28;20303;-67
2022/11/10 04:33:36;;;;;;;16.75;13.65;;;11.50;86.30;;;9.82;100.00;96592.06;4900466;28;20330;-69
2022/11/10 04:36:02;;;;;;;24.95;20.42;;;11.50;86.20;;;9.81;100.00;96596.50;4897418;27;20325;-71
2022/11/10 04:38:29;;;;;;;6.13;4.63;;;11.50;86.40;;;9.79;100.00;96598.47;4911939;28;20330;-68
2022/11/10 04:40:54;;;;;;;5.28;2.10;;;11.40;86.30;;;9.75;100.00;96607.69;4895215;28;20517;-67
2022/11/10 04:43:21;;;;;;;3.90;1.98;;;11.30;86.60;;;9.70;100.00;96610.00;4928495;28;20362;-70
2022/11/10 04:45:47;;;;;;;4.38;1.60;;;11.20;86.80;;;9.71;100.00;96616.06;4924056;28;20505;-70
2022/11/10 04:48:13;;;;;;;2.95;1.88;;;11.30;86.80;;;9.70;100.00;96630.19;4924884;28;20893;-67
2022/11/10 04:50:39;;;;;;;3.60;1.80;;;11.20;86.70;;;9.67;100.00;96623.47;4936632;28;20257;-66
2022/11/10 04:53:05;;;;;;;2.67;1.60;;;11.20;86.80;;;9.66;100.00;96627.09;4922883;28;20477;-65
2022/11/10 04:55:31;;;;;;;3.65;1.63;;;11.20;86.80;;;9.64;100.00;96626.44;4906398;28;20261;-67
2022/11/10 04:57:57;;;;;;;5.50;1.70;;;11.10;86.90;;;9.64;100.00;96623.00;4923155;28;20628;-65
2022/11/10 05:00:23;;;;;;;4.88;1.77;;;11.20;86.80;;;9.62;100.00;96633.69;4934395;28;20310;-66
2022/11/10 05:02:50;;;;;;;6.32;2.08;;;11.20;86.70;;;9.61;100.00;96629.41;4933875;28;20353;-67
2022/11/10 05:05:16;;;;;;;4.47;1.75;;;11.20;86.70;;;9.61;100.00;96626.78;4926324;28;20215;-66
2022/11/10 05:07:42;;;;;;;5.15;2.13;;;11.20;86.70;;;9.59;100.00;96628.78;4914658;28;20214;-66
2022/11/10 05:10:09;;;;;;;4.00;1.67;;;11.20;86.60;;;9.60;100.00;96629.59;4933629;28;20910;-67
2022/11/10 05:12:35;;;;;;;4.45;2.10;;;11.30;86.50;;;9.59;100.00;96627.94;4918340;28;20494;-66
2022/11/10 05:15:01;;;;;;;3.30;2.00;;;11.20;86.50;;;9.59;100.00;96635.84;4916617;28;20363;-66
2022/11/10 05:17:27;;;;;;;4.18;1.67;;;11.20;86.50;;;9.58;100.00;96647.31;4906746;28;20412;-66
2022/11/10 05:19:53;;;;;;;3.05;1.80;;;11.20;86.50;;;9.57;100.00;96662.25;4938385;28;20421;-66
2022/11/10 05:22:20;;;;;;;5.75;2.17;;;11.20;86.50;;;9.56;100.00;96665.88;4955887;28;20466;-66
2022/11/10 05:24:46;;;;;;;6.30;2.70;;;11.20;86.50;;;9.52;100.00;96662.78;4954354;28;20206;-66
2022/11/10 05:27:12;;;;;;;6.85;2.97;;;11.10;86.60;;;9.53;100.00;96671.47;4922676;28;20176;-66
2022/11/10 05:29:38;;;;;;;4.40;2.65;;;11.10;86.60;;;9.52;100.00;96675.09;4943567;28;20342;-66
2022/11/10 05:32:04;;;;;;;5.38;3.03;;;11.10;86.50;;;9.49;100.00;96670.97;4943115;28;20543;-67
2022/11/10 05:34:31;;;;;;;4.68;3.38;;;11.10;86.70;;;9.49;100.00;96676.22;4902931;28;20550;-68
2022/11/10 05:36:57;;;;;;;6.38;3.72;;;11.10;86.90;;;9.46;100.00;96681.81;4910354;28;20345;-68
2022/11/10 05:39:23;;;;;;;22.33;16.67;;;11.10;86.70;;;9.46;100.00;96679.19;4906432;28;20561;-69
2022/11/10 05:41:50;;;;;;;19.33;15.30;;;11.10;86.80;;;9.46;100.00;96681.00;4907448;28;20466;-70
2022/11/10 05:44:16;;;;;;;11.57;9.07;;;11.10;86.70;;;9.46;100.00;96687.06;4923048;28;20359;-70
2022/11/10 05:46:42;;;;;;;6.47;3.85;;;11.10;86.60;;;9.43;100.00;96687.41;4896075;28;20416;-69
2022/11/10 05:49:08;;;;;;;4.35;3.33;;;11.00;86.70;;;9.41;100.00;96704.31;4963834;28;20334;-68
2022/11/10 05:51:34;;;;;;;5.85;4.43;;;11.00;86.90;;;9.40;100.00;96705.31;4929860;28;20290;-75
2022/11/10 05:54:00;;;;;;;4.50;3.10;;;11.00;86.90;;;9.40;100.00;96705.31;4923146;28;20309;-68
2022/11/10 05:56:26;;;;;;;6.97;3.20;;;11.00;86.80;;;9.38;100.00;96720.41;4921533;28;20358;-67
2022/11/10 05:58:52;;;;;;;8.02;3.10;;;11.00;86.60;;;9.38;100.00;96725.66;4923140;28;20322;-70
2022/11/10 06:01:19;;;;;;;4.35;3.25;;;11.00;86.50;;;9.36;100.00;96723.19;4906225;28;20693;-70
2022/11/10 06:03:45;;;;;;;9.38;3.88;;;11.00;86.50;;;9.35;100.00;96734.69;4904159;28;20318;-67
2022/11/10 06:06:11;;;;;;;4.57;3.63;;;10.90;86.60;;;9.30;100.00;96734.38;4935480;28;20415;-64
2022/11/10 06:08:37;;;;;;;4.38;3.55;;;10.80;86.90;;;9.26;100.00;96737.47;4926150;28;20708;-65
2022/11/10 06:11:03;;;;;;;6.55;3.88;;;10.70;87.00;;;9.23;100.00;96746.50;4918039;28;20823;-63
2022/11/10 06:13:29;;;;;;;6.25;3.97;;;10.70;86.80;;;9.18;100.00;96740.91;4934883;28;20353;-64
2022/11/10 06:15:55;;;;;;;8.18;5.63;;;10.70;87.00;;;9.13;100.00;96754.53;4914210;28;20347;-63
2022/11/10 06:18:21;;;;;;;9.20;6.68;;;10.60;87.40;;;9.08;100.00;96759.47;4934429;28;20370;-64
2022/11/10 06:20:47;;;;;;;6.60;5.00;;;10.50;87.70;;;9.06;100.00;96768.50;4924581;28;20693;-65
2022/11/10 06:23:14;;;;;;;7.80;5.10;;;10.60;87.40;;;9.07;100.00;96781.44;4916890;28;20388;-66
2022/11/10 06:25:40;;;;;;;6.57;4.60;;;10.70;87.30;;;9.08;100.00;96787.50;4909513;28;20492;-65
2022/11/10 06:28:07;;;;;;;10.75;6.60;;;10.60;87.10;;;9.08;100.00;96798.00;4927545;28;20421;-65
2022/11/10 06:30:34;;;;;;;11.80;9.63;;;10.70;87.00;;;9.08;100.00;96796.22;4930712;28;20206;-64
2022/11/10 06:33:01;;;;;;;11.63;9.00;;;10.70;86.90;;;9.07;100.00;96799.81;4928355;28;20358;-65
2022/11/10 06:35:27;;;;;;;8.82;5.22;;;10.70;87.00;;;9.06;100.00;96808.66;4913270;28;20195;-66
2022/11/10 06:38:04;;;;;;;7.63;4.72;;;10.70;86.70;;;9.06;100.00;96811.28;4903371;28;20452;-64
2022/11/10 06:40:34;;;;;;;9.57;4.53;;;10.70;86.50;;;9.02;100.00;96809.13;4936877;28;20414;-65
2022/11/10 06:43:00;;;;;;;8.00;5.00;;;10.60;86.60;;;8.99;100.00;96822.59;4907272;28;20477;-64
2022/11/10 06:45:29;;;;;;;6.85;4.38;;;10.60;86.60;;;8.95;100.00;96822.09;4905322;28;20713;-63
2022/11/10 06:48:06;;;;;;;5.78;4.38;;;10.60;86.30;;;8.93;100.00;96831.91;4928356;28;20366;-64
2022/11/10 06:50:33;;;;;;;6.35;4.18;;;10.60;86.40;;;8.91;100.00;96833.88;4912240;28;20374;-64
2022/11/10 06:52:59;;;;;;;7.10;4.18;;;10.50;86.50;;;8.89;100.00;96846.34;4907031;28;20480;-63
2022/11/10 06:55:26;;;;;;;6.40;3.83;;;10.50;86.40;;;8.86;100.00;96851.91;4918272;28;20334;-65
2022/11/10 06:57:53;;;;;;;8.70;4.28;;;10.50;86.60;;;8.83;100.00;96847.00;4885138;28;20501;-65
2022/11/10 07:00:19;;;;;;;10.95;5.03;;;10.40;86.50;;;8.82;100.00;96856.63;4883089;28;20233;-63
2022/11/10 07:03:00;;;;;;;7.50;5.40;;;10.50;86.60;;;8.81;100.00;96865.50;4890343;28;20414;-63
2022/11/10 07:05:26;;;;;;;12.45;7.80;;;10.40;86.90;;;8.77;100.00;96863.34;4914958;28;20474;-63
2022/11/10 07:07:52;;;;;;;12.35;7.43;;;10.30;87.30;;;8.76;100.00;96872.19;4932858;28;20351;-63
2022/11/10 07:10:18;;;;;;;11.82;6.68;;;10.40;87.00;;;8.76;100.00;96872.19;4909306;28;20502;-63
2022/11/10 07:12:44;;;;;;;12.25;6.32;;;10.40;87.00;;;8.77;100.00;96884.34;4932121;28;20328;-63
2022/11/10 07:15:10;;;;;;;11.23;6.10;;;10.40;86.80;;;8.75;100.00;96887.13;4919428;28;20717;-63
2022/11/10 07:17:40;;;;;;;8.88;5.72;;;10.40;86.60;;;8.79;100.00;96882.38;4901532;28;20603;-64
2022/11/10 07:20:07;;;;;;;9.40;5.18;;;10.60;86.40;;;8.82;100.00;96882.06;4929275;28;20331;-63
2022/11/10 07:22:33;;;;;;;8.25;4.65;;;10.70;86.50;;;8.89;100.00;96899.66;4908985;28;20367;-66
2022/11/10 07:25:00;;;;;;;7.65;4.55;;;10.80;86.50;;;8.97;100.00;96901.47;4891037;28;20354;-63
2022/11/10 07:27:26;;;;;;;6.85;4.43;;;11.00;86.40;;;9.08;100.00;96906.44;4908787;28;20362;-63
2022/11/10 07:29:52;;;;;;;7.60;4.20;;;11.30;85.90;;;9.19;100.00;96910.56;4890029;28;20385;-63
2022/11/10 07:32:18;;;;;;;6.35;3.92;;;11.30;85.60;;;9.27;100.00;96907.94;4920104;28;20890;-62
2022/11/10 07:34:44;;;;;;;5.05;4.07;;;11.40;85.00;;;9.36;100.00;96911.41;4923665;28;20366;-63
2022/11/10 07:37:10;;;;;;;6.07;3.80;;;11.40;85.10;;;9.40;100.00;96912.72;4936787;28;20373;-63
2022/11/10 07:39:36;;;;;;;5.38;3.30;;;11.40;84.60;;;9.43;100.00;96917.66;4910101;28;20310;-63
2022/11/10 07:42:03;;;;;;;6.85;3.50;;;11.40;84.70;;;9.43;100.00;96915.84;4906767;28;20302;-64
2022/11/10 07:44:29;;;;;;;8.48;4.00;;;11.30;84.60;;;9.43;100.00;96912.41;4922630;28;20686;-64
2022/11/10 07:46:55;;;;;;;7.30;4.30;;;11.40;84.70;;;9.46;100.00;96917.34;4901169;28;20571;-63
2022/11/10 07:49:22;;;;;;;7.53;4.68;;;11.60;84.00;;;9.50;100.00;96918.66;4898066;28;20441;-62
2022/11/10 07:51:48;;;;;;;8.10;5.03;;;11.80;83.70;;;9.58;100.00;96925.72;4882929;28;20545;-63
2022/11/10 07:54:14;;;;;;;5.43;4.63;;;11.90;83.30;;;9.65;100.00;96926.72;4886531;28;20823;-65
2022/11/10 07:56:41;;;;;;;5.07;4.43;;;12.10;83.10;;;9.73;100.00;96927.56;4896345;28;20461;-65
2022/11/10 07:59:07;;;;;;;5.45;3.88;;;12.10;83.00;;;9.84;100.00;96931.66;4918140;28;20269;-68
2022/11/10 08:01:37;;;;;;;5.75;3.60;;;12.10;82.90;;;9.93;100.00;96929.84;4916798;28;20375;-77
2022/11/10 08:04:03;;;;;;;6.43;3.60;;;12.20;82.90;;;10.02;100.00;96945.47;4936984;28;20215;-67
2022/11/10 08:06:35;;;;;;;7.05;4.18;;;12.20;82.80;;;10.13;100.00;96941.66;4911040;28;20514;-66
2022/11/10 08:09:01;;;;;;;8.15;4.13;;;12.30;82.50;;;10.22;100.00;96946.00;4922908;28;20542;-67
2022/11/10 08:11:28;;;;;;;7.40;4.10;;;12.40;82.50;;;10.33;100.00;96947.44;4914916;28;20318;-67
2022/11/10 08:13:54;;;;;;;6.03;3.92;;;12.60;82.20;;;10.43;100.00;96948.09;4871968;28;20363;-66
2022/11/10 08:16:20;;;;;;;8.38;3.60;;;12.70;81.80;;;10.55;100.00;96951.19;4893799;28;20558;-66
2022/11/10 08:18:46;;;;;;;5.90;3.30;;;13.00;80.80;;;10.67;100.00;96945.41;4906671;28;20501;-67
2022/11/10 08:24:54;;;;;;;6.80;3.58;;;13.70;78.80;;;11.10;100.00;96950.38;4990380;28;20208;-65
2022/11/10 08:27:20;;;;;;;8.50;3.95;;;14.20;77.40;;;11.30;100.00;96956.84;4895004;28;20359;-65
2022/11/10 08:29:46;;;;;;;5.20;3.28;;;14.60;76.10;;;11.51;100.00;96953.59;4893007;28;20191;-62
2022/11/10 08:32:12;;;;;;;6.45;3.20;;;15.00;74.50;;;11.74;100.00;96958.91;4920910;28;20294;-65
2022/11/10 08:34:38;;;;;;;5.28;3.40;;;15.30;73.40;;;11.96;100.00;96968.66;4932693;28;20275;-68
2022/11/10 08:37:05;;;;;;;3.97;2.70;;;15.70;72.20;;;12.19;100.00;96953.63;4907091;28;20466;-68
2022/11/10 08:39:32;;;;;;;5.68;2.90;;;16.10;70.50;;;12.45;100.00;96963.00;4919361;28;20310;-67
2022/11/10 08:41:58;;;;;;;6.43;2.80;;;16.60;68.40;;;12.71;100.00;96970.50;4894020;28;20358;-67
2022/11/10 08:44:24;;;;;;;4.28;2.50;;;16.90;67.20;;;12.98;100.00;96980.44;4906065;28;20766;-67
2022/11/10 08:46:50;;;;;;;4.75;2.65;;;17.40;65.80;;;13.27;100.00;96984.06;4915656;28;20346;-64
2022/11/10 08:49:16;;;;;;;4.07;2.20;;;17.70;64.20;;;13.54;100.00;96979.94;4908795;28;20398;-65
2022/11/10 08:51:42;;;;;;;3.97;2.47;;;18.10;63.00;;;13.82;100.00;96972.13;4904069;28;20417;-65
2022/11/10 08:54:09;;;;;;;4.55;2.40;;;18.60;61.40;;;14.08;100.00;96989.06;4931037;28;20432;-65
2022/11/10 08:56:35;;;;;;;5.18;2.13;;;19.10;59.80;;;14.37;100.00;96995.22;4887642;28;20329;-67
2022/11/10 08:59:01;;;;;;;5.80;2.20;;;19.40;58.40;;;14.64;100.00;96989.16;4914601;28;20207;-66
2022/11/10 09:01:27;;;;;;;3.95;2.20;;;19.90;56.70;;;14.94;100.00;96999.56;4913083;28;20744;-68
2022/11/10 09:03:54;;;;;;;3.95;1.83;;;20.50;55.30;;;15.23;100.00;97001.16;4912880;28;20361;-66
2022/11/10 09:06:20;;;;;;;8.07;2.22;;;21.00;53.90;;;15.51;100.00;97011.69;4875239;28;20344;-63
2022/11/10 09:08:46;;;;;;;5.05;2.20;;;21.50;51.70;;;15.74;100.00;97006.09;4910902;28;20386;-66
2022/11/10 09:11:12;;;;;;;4.47;2.00;;;21.80;51.00;;;16.00;100.00;97015.97;4922654;28;20265;-65
2022/11/10 09:13:38;;;;;;;3.63;1.60;;;22.60;49.20;;;16.24;100.00;97012.75;4941738;28;20365;-66
2022/11/10 09:16:05;;;;;;;4.25;1.60;;;22.80;47.50;;;16.40;100.00;97017.69;4891696;28;20284;-67
2022/11/10 09:18:32;;;;;;;5.85;2.05;;;22.60;48.00;;;16.62;100.00;97020.16;4899499;28;20770;-67
2022/11/10 09:20:58;;;;;;;4.40;1.70;;;22.40;47.90;;;16.63;98.39;97035.06;4910163;28;20299;-66
2022/11/10 09:23:25;;;;;;;6.07;1.75;;;21.60;49.60;;;16.63;97.47;97035.06;4908838;28;20298;-64
2022/11/10 09:25:53;;;;;;;7.80;1.77;;;21.10;50.90;;;16.52;94.43;97039.97;4939314;28;20362;-65
2022/11/10 09:28:19;;;;;;;2.47;1.42;;;20.10;52.60;;;16.45;94.82;97031.16;4904990;28;20342;-67
2022/11/10 09:30:47;;;;;;;3.95;1.40;;;21.80;49.90;;;16.75;93.73;97030.81;4902014;28;20414;-65
2022/11/10 09:33:13;;;;;;;5.75;1.42;;;24.00;44.30;;;17.03;94.66;97036.72;4913433;28;20458;-68
2022/11/10 09:35:39;;;;;;;2.30;1.25;;;23.40;44.40;;;17.11;92.85;97044.47;4937074;28;20362;-66
2022/11/10 09:38:05;;;;;;;4.57;1.42;;;23.50;45.90;;;17.21;92.38;97045.91;4930704;28;20404;-70
2022/11/10 09:40:56;;;;;;;3.65;1.20;;;22.70;46.40;;;17.40;85.26;97055.66;4907615;28;20329;-68
2022/11/10 09:43:44;;;;;;;;;;;24.10;43.40;;;17.49;83.76;97054.41;4925399;28;20487;-70
2022/11/10 09:46:17;;;;;;;5.32;1.35;;;23.10;45.60;;;17.52;87.53;97053.19;4964526;28;20093;-70
2022/11/10 09:48:53;;;;;;;4.72;1.30;;;24.20;43.80;;;17.67;84.10;97057.28;4903418;28;20369;-67
2022/11/10 09:51:28;;;;;;;4.30;1.33;;;23.40;44.70;;;17.99;83.50;97058.16;4933438;28;20418;-66
2022/11/10 09:54:12;;;;;;;6.57;1.20;;;26.10;39.80;;;18.48;80.46;97058.47;4915082;28;20363;-67
2022/11/10 09:56:38;;;;;;;3.55;1.08;;;28.10;35.90;;;19.00;84.88;97061.81;4940846;28;20444;-64
2022/11/10 09:59:15;;;;;;;4.97;1.05;;;28.80;34.60;;;19.51;76.08;97054.34;4926385;28;20366;-66
2022/11/10 10:01:58;;;;;;;3.08;0.80;;;30.20;32.30;;;19.91;70.94;97050.41;4912321;28;20372;-65
2022/11/10 10:04:43;;;;;;;2.92;0.90;;;29.70;32.40;;;20.35;68.54;97052.69;4909012;28;20731;-66
2022/11/10 10:07:24;;;;;;;3.13;1.15;;;30.90;29.80;;;20.63;67.46;97068.16;4926548;28;20504;-70
2022/11/10 10:10:03;;;;;;;2.33;0.88;;;29.30;31.60;;;20.68;65.69;97062.94;4943741;28;20699;-72
2022/11/10 10:13:07;;;;;;;3.25;0.80;;;27.60;32.90;;;20.46;63.43;97059.16;4923653;28;20322;-67
2022/11/10 10:16:01;;;;;;;4.20;1.23;;;25.60;36.80;;;20.15;62.79;97076.22;4956594;28;20378;-68
2022/11/10 10:18:52;;;;;;;4.32;1.15;;;24.20;39.20;;;20.01;62.47;97072.88;4939917;28;20775;-65
2022/11/10 10:21:49;;;;;;;2.83;1.13;;;24.60;38.50;;;20.12;62.69;97071.31;4940670;28;20448;-67
2022/11/10 10:24:16;;;;;;;5.18;1.35;;;27.00;34.90;;;20.26;68.12;97072.78;4947832;28;20399;-66
2022/11/10 10:26:54;;;;;;;4.78;1.13;;;27.20;34.70;;;20.42;62.95;97060.66;4936842;28;20421;-67
2022/11/10 10:29:30;;;;;;;5.10;1.02;;;27.50;34.00;;;20.62;62.40;97066.53;4930523;28;20322;-67
2022/11/10 10:31:59;;;;;;;4.22;1.13;;;27.50;34.30;;;20.65;65.57;97065.25;4908811;28;20365;-68
2022/11/10 10:34:30;;;;;;;2.75;0.90;;;26.30;35.50;;;20.48;61.57;97063.22;4900633;28;20314;-67